Ocean Falls, Canada
Current Conditions -  °F | °C
As of 2:00 PM on Wednesday 22 Oct 2014 (Local Time) from CBBC Reporting Station
Light Rain Light Rain  
Wind Chill: 46°   Ceiling: 5000
Heat Index: 48°   Visibility: 9mi
Dew Point: 45°   Wind: 5mph
Humidity: 87%   Direction: 110°ESE
Pressure: 29.48"   Gusts: NA
Location:  52.35°N, 127.7°W
Report Text: CBBC 222100Z AUTO 11004KT 060V130 9SM -RA OVC050 09/07 A2948 RMK SLP983
Loading
Personal Weather Stations






























Interactive Weather Map
Tropical Storm Tracking
New forecast layout! Learn more

10-Day Weather Forecast

Advertisements
Track Severe Weather on mobile